createdAt,value
2018-07-26T00:03:45.936Z,6.17
2018-07-26T00:08:40.466Z,5.55
2018-07-26T00:13:35.069Z,5.40
2018-07-26T00:18:29.605Z,5.75
2018-07-26T00:23:24.161Z,6.20
2018-07-26T00:28:18.731Z,5.80
2018-07-26T00:33:13.326Z,5.72
2018-07-26T00:38:07.900Z,5.60
2018-07-26T00:43:02.408Z,5.70
2018-07-26T00:47:57.005Z,5.90
2018-07-26T00:52:51.581Z,6.50
2018-07-26T00:57:46.146Z,5.70
2018-07-26T01:02:40.681Z,5.50
2018-07-26T01:07:35.249Z,6.60
2018-07-26T01:12:29.838Z,6.10
2018-07-26T01:17:24.552Z,6.20
2018-07-26T01:22:19.186Z,6.00
2018-07-26T01:27:14.139Z,6.20
2018-07-26T01:32:08.712Z,6.43
2018-07-26T01:37:03.280Z,6.57
2018-07-26T01:41:57.893Z,6.60
2018-07-26T01:46:52.496Z,6.20
2018-07-26T01:51:47.128Z,6.40
2018-07-26T01:56:41.686Z,6.27
2018-07-26T02:01:36.271Z,6.10
2018-07-26T02:06:30.789Z,6.60
2018-07-26T02:11:25.424Z,6.60
2018-07-26T02:16:20.072Z,7.30
2018-07-26T02:21:14.696Z,6.70
2018-07-26T02:26:09.503Z,7.77
2018-07-26T02:31:04.138Z,7.27
2018-07-26T02:35:58.631Z,7.50
2018-07-26T02:40:53.014Z,7.77
2018-07-26T02:45:47.627Z,8.27
2018-07-26T02:50:41.861Z,8.27
2018-07-26T02:55:36.417Z,7.03
2018-07-26T03:00:31.034Z,6.90
2018-07-26T03:05:25.566Z,7.90
2018-07-26T03:10:20.179Z,7.80
2018-07-26T03:15:14.804Z,7.60
2018-07-26T03:20:09.404Z,6.87
2018-07-26T03:25:04.021Z,7.60
2018-07-26T03:29:58.609Z,7.97
2018-07-26T03:34:53.144Z,8.93
2018-07-26T03:39:47.684Z,7.70
2018-07-26T03:44:42.258Z,8.67
2018-07-26T03:49:36.857Z,8.70
2018-07-26T03:54:31.450Z,8.00
2018-07-26T03:59:26.585Z,8.93
2018-07-26T04:04:21.092Z,8.60
2018-07-26T04:09:16.294Z,8.33
2018-07-26T04:14:11.031Z,9.37
2018-07-26T04:19:05.720Z,9.03
2018-07-26T04:24:00.700Z,8.80
2018-07-26T04:28:55.274Z,8.60
2018-07-26T04:33:50.102Z,8.50
2018-07-26T04:38:44.629Z,7.97
2018-07-26T04:43:39.236Z,8.40
2018-07-26T04:48:34.425Z,8.48
2018-07-26T04:53:29.212Z,7.72
2018-07-26T04:58:23.810Z,8.13
2018-07-26T05:03:18.568Z,7.17
2018-07-26T05:08:13.204Z,7.10
2018-07-26T05:13:07.822Z,6.50
2018-07-26T05:18:02.388Z,6.65
2018-07-26T05:22:56.999Z,6.37
2018-07-26T05:27:51.925Z,5.58
2018-07-26T05:32:47.720Z,6.92
2018-07-26T05:37:42.637Z,5.90
2018-07-26T05:42:37.341Z,7.00
2018-07-26T05:47:31.996Z,6.83
2018-07-26T05:52:26.607Z,6.50
2018-07-26T05:57:33.798Z,6.20
2018-07-26T06:02:28.896Z,7.42
2018-07-26T06:07:23.421Z,7.47
2018-07-26T06:12:18.037Z,7.78
2018-07-26T06:17:12.899Z,6.60
2018-07-26T06:22:07.421Z,6.62
2018-07-26T06:27:01.850Z,6.53
2018-07-26T06:31:56.349Z,6.05
2018-07-26T06:36:50.778Z,5.83
2018-07-26T06:41:45.513Z,6.35
2018-07-26T06:46:39.682Z,5.97
2018-07-26T06:51:34.385Z,5.35
2018-07-26T06:56:28.906Z,6.60
2018-07-26T07:01:23.381Z,6.03
2018-07-26T07:06:17.805Z,5.92
2018-07-26T07:11:12.325Z,6.00
2018-07-26T07:16:06.815Z,6.40
2018-07-26T07:21:03.094Z,6.35
2018-07-26T07:25:58.538Z,5.83
2018-07-26T07:30:52.743Z,6.10
2018-07-26T07:36:02.199Z,6.17
2018-07-26T07:40:56.852Z,5.58
2018-07-26T07:45:51.427Z,6.53
2018-07-26T07:50:47.082Z,5.22
2018-07-26T07:55:41.893Z,8.83
2018-07-26T08:00:36.325Z,5.58
2018-07-26T08:05:30.784Z,6.17
2018-07-26T08:10:25.300Z,6.45
2018-07-26T08:15:19.909Z,5.97
2018-07-26T08:20:14.371Z,6.30
2018-07-26T08:25:09.721Z,5.97
2018-07-26T08:30:05.682Z,6.00
2018-07-26T08:35:00.221Z,6.00
2018-07-26T08:39:54.853Z,5.85
2018-07-26T08:44:50.653Z,5.75
2018-07-26T08:49:46.204Z,5.67
2018-07-26T08:54:41.330Z,5.12
2018-07-26T08:59:36.798Z,5.55
2018-07-26T09:04:37.228Z,6.15
2018-07-26T09:09:32.621Z,6.10
2018-07-26T09:14:27.114Z,5.85
2018-07-26T09:19:21.338Z,5.12
2018-07-26T09:24:22.216Z,5.37
2018-07-26T09:29:17.319Z,5.80
2018-07-26T09:34:11.961Z,4.97
2018-07-26T09:39:14.126Z,5.33
2018-07-26T09:44:09.745Z,4.97
2018-07-26T09:49:04.392Z,5.15
2018-07-26T09:53:58.867Z,5.70
2018-07-26T09:58:53.404Z,4.60
2018-07-26T10:03:47.884Z,4.15
2018-07-26T10:08:42.392Z,4.20
2018-07-26T10:13:36.877Z,4.03
2018-07-26T10:18:31.491Z,3.77
2018-07-26T10:23:25.967Z,3.60
2018-07-26T10:28:31.374Z,3.37
2018-07-26T10:33:26.089Z,3.87
2018-07-26T10:38:20.724Z,3.70
2018-07-26T10:43:15.554Z,3.37
2018-07-26T10:48:10.329Z,3.80
2018-07-26T10:53:05.204Z,3.45
2018-07-26T10:58:02.032Z,3.42
2018-07-26T11:03:08.297Z,3.55
2018-07-26T11:08:03.434Z,3.62
2018-07-26T11:12:58.663Z,3.60
2018-07-26T11:17:53.573Z,3.35
2018-07-26T11:22:48.444Z,3.33
2018-07-26T11:27:43.722Z,3.00
2018-07-26T11:32:38.453Z,3.00
2018-07-26T11:37:37.257Z,3.33
2018-07-26T11:42:39.800Z,2.95
2018-07-26T11:47:46.386Z,2.70
2018-07-26T11:52:41.571Z,3.37
2018-07-26T11:57:36.285Z,2.85
2018-07-26T12:24:04.562Z,2.47
2018-07-26T12:29:01.105Z,2.47
2018-07-26T12:33:58.272Z,3.20
2018-07-26T12:38:53.090Z,2.70
2018-07-26T12:43:47.893Z,2.58
2018-07-26T12:48:42.571Z,2.50
2018-07-26T13:09:52.190Z,2.67
2018-07-26T13:14:47.076Z,2.50
2018-07-26T13:19:41.805Z,2.83
2018-07-26T13:24:36.469Z,2.20
2018-07-26T13:29:31.141Z,3.08
2018-07-26T13:34:26.048Z,2.67
2018-07-26T13:39:21.626Z,2.90
2018-07-26T13:44:17.271Z,3.33
2018-07-26T13:49:12.097Z,3.27
2018-07-26T13:54:07.165Z,2.90
2018-07-26T13:59:01.939Z,2.30
2018-07-26T14:03:56.988Z,2.70
2018-07-26T14:08:51.601Z,2.40
2018-07-26T14:13:46.376Z,2.20
2018-07-26T14:18:41.364Z,2.40
2018-07-26T14:23:38.153Z,2.50
2018-07-26T14:28:32.925Z,2.62
2018-07-26T14:33:27.560Z,2.52
2018-07-26T14:38:22.160Z,2.27
2018-07-26T14:43:16.771Z,2.65
2018-07-26T14:48:11.430Z,2.65
2018-07-26T14:53:06.216Z,2.58
2018-07-26T14:58:01.050Z,2.47
2018-07-26T15:02:55.873Z,2.72
2018-07-26T15:07:50.734Z,2.47
2018-07-26T15:12:45.345Z,2.40
2018-07-26T15:17:40.391Z,2.40
2018-07-26T15:22:35.081Z,2.52
2018-07-26T15:27:30.073Z,2.40
2018-07-26T15:32:24.676Z,2.60
2018-07-26T15:37:19.280Z,2.50
2018-07-26T15:42:14.046Z,2.47
2018-07-26T15:47:08.774Z,2.25
2018-07-26T15:52:03.549Z,2.30
2018-07-26T15:56:58.257Z,2.50
2018-07-26T16:01:52.854Z,2.45
2018-07-26T16:06:47.731Z,2.60
2018-07-26T16:11:42.432Z,2.50
2018-07-26T16:16:37.030Z,2.50
2018-07-26T16:21:31.669Z,2.60
2018-07-26T16:26:26.320Z,2.50
2018-07-26T16:31:21.781Z,2.70
2018-07-26T16:36:16.441Z,2.55
2018-07-26T16:41:11.065Z,2.60
2018-07-26T16:46:05.780Z,2.60
2018-07-26T16:51:00.571Z,3.17
2018-07-26T16:55:55.129Z,2.77
2018-07-26T17:00:49.721Z,2.80
2018-07-26T17:05:44.394Z,2.90
2018-07-26T17:10:39.030Z,3.05
2018-07-26T17:15:33.664Z,2.72
2018-07-26T17:20:28.574Z,2.72
2018-07-26T17:25:26.155Z,2.90
2018-07-26T17:30:20.793Z,3.00
2018-07-26T17:35:15.295Z,2.85
2018-07-26T17:40:10.161Z,2.83
2018-07-26T17:45:07.280Z,3.10
2018-07-26T17:50:01.866Z,3.17
2018-07-26T17:54:56.744Z,2.90
2018-07-26T17:59:51.304Z,3.37
2018-07-26T18:04:45.856Z,3.45
2018-07-26T18:09:40.119Z,3.15
2018-07-26T18:14:34.709Z,3.70
2018-07-26T18:19:30.013Z,2.87
2018-07-26T18:24:24.590Z,3.17
2018-07-26T18:29:19.198Z,3.45
2018-07-26T18:34:13.753Z,3.05
2018-07-26T18:39:11.898Z,3.30
2018-07-26T18:44:06.765Z,3.35
2018-07-26T18:49:01.190Z,3.30
2018-07-26T18:53:55.955Z,3.40
2018-07-26T18:58:50.566Z,3.17
2018-07-26T19:03:45.189Z,2.95
2018-07-26T19:08:39.800Z,3.05
2018-07-26T19:13:34.622Z,3.33
2018-07-26T19:18:29.250Z,3.30
2018-07-26T19:23:23.807Z,3.60
2018-07-26T19:28:18.369Z,3.40
2018-07-26T19:33:12.647Z,3.00
2018-07-26T19:38:07.273Z,3.37
2018-07-26T19:43:01.830Z,3.22
2018-07-26T19:47:56.604Z,3.62
2018-07-26T19:52:51.104Z,3.40
2018-07-26T19:57:45.687Z,3.47
2018-07-26T20:02:40.444Z,3.58
2018-07-26T20:07:34.981Z,3.40
2018-07-26T20:12:29.657Z,3.40
2018-07-26T20:17:24.425Z,3.62
2018-07-26T20:22:19.118Z,3.65
2018-07-26T20:27:13.753Z,3.65
2018-07-26T20:32:08.306Z,3.75
2018-07-26T20:37:02.913Z,4.15
2018-07-26T20:41:57.569Z,3.58
2018-07-26T20:46:51.890Z,4.08
2018-07-26T20:51:46.476Z,3.67
2018-07-26T20:56:41.042Z,3.75
2018-07-26T21:01:35.637Z,4.10
2018-07-26T21:06:30.328Z,4.15
2018-07-26T21:11:24.670Z,3.70
2018-07-26T21:16:19.271Z,4.05
2018-07-26T21:21:13.839Z,3.80
2018-07-26T21:26:08.377Z,4.00
2018-07-26T21:31:02.960Z,3.62
2018-07-26T21:35:57.560Z,4.08
2018-07-26T21:40:52.130Z,4.17
2018-07-26T21:45:47.157Z,4.10
2018-07-26T21:50:41.734Z,4.15
2018-07-26T21:55:36.366Z,4.45
2018-07-26T22:00:39.693Z,4.03
2018-07-26T22:05:34.246Z,3.98
2018-07-26T22:10:28.901Z,4.37
2018-07-26T22:15:23.525Z,4.25
2018-07-26T22:20:18.126Z,4.25
2018-07-26T22:25:12.708Z,4.55
2018-07-26T22:30:07.374Z,4.80
2018-07-26T22:35:01.921Z,4.30
2018-07-26T22:39:56.561Z,4.05
2018-07-26T22:44:51.096Z,4.33
2018-07-26T22:49:45.644Z,4.42
2018-07-26T22:54:40.233Z,4.20
2018-07-26T22:59:34.463Z,4.53
2018-07-26T23:04:29.015Z,4.62
2018-07-26T23:09:23.568Z,4.37
2018-07-26T23:14:18.095Z,3.92
2018-07-26T23:19:12.641Z,4.12
2018-07-26T23:24:07.254Z,4.67
2018-07-26T23:29:01.819Z,4.30
2018-07-26T23:33:56.461Z,4.70
2018-07-26T23:38:50.990Z,5.08
2018-07-26T23:43:45.223Z,4.87
2018-07-26T23:48:39.783Z,4.90
2018-07-26T23:53:34.086Z,4.65
2018-07-26T23:58:28.322Z,4.60
